sensor_id;sensor_type;location;lat;lon;timestamp;temperature;humidity
32839;DHT22;19182;41.820;12.808;2023-12-20T00:01:21;3.50;99.90
32839;DHT22;19182;41.820;12.808;2023-12-20T00:03:48;3.60;99.90
32839;DHT22;19182;41.820;12.808;2023-12-20T00:06:14;3.60;99.90
32839;DHT22;19182;41.820;12.808;2023-12-20T00:08:40;3.60;99.90
32839;DHT22;19182;41.820;12.808;2023-12-20T00:11:07;3.70;99.90
32839;DHT22;19182;41.820;12.808;2023-12-20T00:13:32;3.70;99.90
32839;DHT22;19182;41.820;12.808;2023-12-20T00:15:59;3.80;99.90
32839;DHT22;19182;41.820;12.808;2023-12-20T00:18:24;3.60;99.90
32839;DHT22;19182;41.820;12.808;2023-12-20T00:20:50;3.60;99.90
32839;DHT22;19182;41.820;12.808;2023-12-20T00:23:16;3.50;99.90
32839;DHT22;19182;41.820;12.808;2023-12-20T00:25:42;3.50;99.90
32839;DHT22;19182;41.820;12.808;2023-12-20T00:28:07;3.60;99.90
32839;DHT22;19182;41.820;12.808;2023-12-20T00:30:33;3.60;99.90
32839;DHT22;19182;41.820;12.808;2023-12-20T00:33:00;3.50;99.90
32839;DHT22;19182;41.820;12.808;2023-12-20T00:35:26;3.30;99.90
32839;DHT22;19182;41.820;12.808;2023-12-20T00:37:51;3.30;99.90
32839;DHT22;19182;41.820;12.808;2023-12-20T00:40:17;3.30;99.90
32839;DHT22;19182;41.820;12.808;2023-12-20T00:42:44;3.10;99.90
32839;DHT22;19182;41.820;12.808;2023-12-20T00:45:13;3.10;99.90
32839;DHT22;19182;41.820;12.808;2023-12-20T00:47:40;3.00;99.90
32839;DHT22;19182;41.820;12.808;2023-12-20T00:50:06;3.20;99.90
32839;DHT22;19182;41.820;12.808;2023-12-20T00:52:32;2.80;99.90
32839;DHT22;19182;41.820;12.808;2023-12-20T00:54:58;2.60;99.90
32839;DHT22;19182;41.820;12.808;2023-12-20T00:57:24;2.60;99.90
32839;DHT22;19182;41.820;12.808;2023-12-20T00:59:52;2.80;99.90
32839;DHT22;19182;41.820;12.808;2023-12-20T01:02:17;2.90;99.90
32839;DHT22;19182;41.820;12.808;2023-12-20T01:04:43;3.00;99.90
32839;DHT22;19182;41.820;12.808;2023-12-20T01:07:10;2.90;99.90
32839;DHT22;19182;41.820;12.808;2023-12-20T01:09:36;2.90;99.90
32839;DHT22;19182;41.820;12.808;2023-12-20T01:12:04;2.90;99.90
32839;DHT22;19182;41.820;12.808;2023-12-20T01:14:30;2.90;99.90
32839;DHT22;19182;41.820;12.808;2023-12-20T01:16:55;3.00;99.90
32839;DHT22;19182;41.820;12.808;2023-12-20T01:19:22;3.00;99.90
32839;DHT22;19182;41.820;12.808;2023-12-20T01:21:50;3.00;99.90
32839;DHT22;19182;41.820;12.808;2023-12-20T01:24:16;2.90;99.90
32839;DHT22;19182;41.820;12.808;2023-12-20T01:26:43;2.90;99.90
32839;DHT22;19182;41.820;12.808;2023-12-20T01:29:10;2.90;99.90
32839;DHT22;19182;41.820;12.808;2023-12-20T01:31:36;2.80;99.90
32839;DHT22;19182;41.820;12.808;2023-12-20T01:34:03;2.70;99.90
32839;DHT22;19182;41.820;12.808;2023-12-20T01:36:30;2.80;99.90
32839;DHT22;19182;41.820;12.808;2023-12-20T01:38:56;2.40;99.90
32839;DHT22;19182;41.820;12.808;2023-12-20T01:41:22;2.50;99.90
32839;DHT22;19182;41.820;12.808;2023-12-20T01:43:47;2.60;99.90
32839;DHT22;19182;41.820;12.808;2023-12-20T01:46:13;2.60;99.90
32839;DHT22;19182;41.820;12.808;2023-12-20T01:48:41;2.50;99.90
32839;DHT22;19182;41.820;12.808;2023-12-20T01:51:09;2.60;99.90
32839;DHT22;19182;41.820;12.808;2023-12-20T01:53:36;2.70;99.90
32839;DHT22;19182;41.820;12.808;2023-12-20T01:56:02;2.70;99.90
32839;DHT22;19182;41.820;12.808;2023-12-20T01:58:28;2.70;99.90
32839;DHT22;19182;41.820;12.808;2023-12-20T02:00:56;2.80;99.90
32839;DHT22;19182;41.820;12.808;2023-12-20T02:03:22;2.80;99.90
32839;DHT22;19182;41.820;12.808;2023-12-20T02:05:48;2.90;99.90
32839;DHT22;19182;41.820;12.808;2023-12-20T02:08:14;2.80;99.90
32839;DHT22;19182;41.820;12.808;2023-12-20T02:10:40;2.90;99.90
32839;DHT22;19182;41.820;12.808;2023-12-20T02:13:07;2.90;99.90
32839;DHT22;19182;41.820;12.808;2023-12-20T02:15:33;2.80;99.90
32839;DHT22;19182;41.820;12.808;2023-12-20T02:17:59;2.90;99.90
32839;DHT22;19182;41.820;12.808;2023-12-20T02:20:26;2.90;99.90
32839;DHT22;19182;41.820;12.808;2023-12-20T02:22:51;2.80;99.90
32839;DHT22;19182;41.820;12.808;2023-12-20T02:25:18;2.90;99.90
32839;DHT22;19182;41.820;12.808;2023-12-20T02:27:44;2.90;99.90
32839;DHT22;19182;41.820;12.808;2023-12-20T02:30:10;2.80;99.90
32839;DHT22;19182;41.820;12.808;2023-12-20T02:32:35;2.80;99.90
32839;DHT22;19182;41.820;12.808;2023-12-20T02:35:01;2.70;99.90
32839;DHT22;19182;41.820;12.808;2023-12-20T02:37:28;2.70;99.90
32839;DHT22;19182;41.820;12.808;2023-12-20T02:39:55;2.70;99.90
32839;DHT22;19182;41.820;12.808;2023-12-20T02:42:22;2.70;99.90
32839;DHT22;19182;41.820;12.808;2023-12-20T02:44:49;2.70;99.90
32839;DHT22;19182;41.820;12.808;2023-12-20T02:47:14;2.70;99.90
32839;DHT22;19182;41.820;12.808;2023-12-20T02:49:40;2.80;99.90
32839;DHT22;19182;41.820;12.808;2023-12-20T02:52:07;2.80;99.90
32839;DHT22;19182;41.820;12.808;2023-12-20T02:54:34;2.90;99.90
32839;DHT22;19182;41.820;12.808;2023-12-20T02:57:01;2.80;99.90
32839;DHT22;19182;41.820;12.808;2023-12-20T02:59:26;2.80;99.90
32839;DHT22;19182;41.820;12.808;2023-12-20T03:01:53;2.80;99.90
32839;DHT22;19182;41.820;12.808;2023-12-20T03:04:20;2.90;99.90
32839;DHT22;19182;41.820;12.808;2023-12-20T03:06:46;2.90;99.90
32839;DHT22;19182;41.820;12.808;2023-12-20T03:09:11;2.90;99.90
32839;DHT22;19182;41.820;12.808;2023-12-20T03:11:37;3.00;99.90
32839;DHT22;19182;41.820;12.808;2023-12-20T03:14:04;3.20;99.90
32839;DHT22;19182;41.820;12.808;2023-12-20T03:16:30;3.20;99.90
32839;DHT22;19182;41.820;12.808;2023-12-20T03:18:56;3.20;99.90
32839;DHT22;19182;41.820;12.808;2023-12-20T03:21:24;3.20;99.90
32839;DHT22;19182;41.820;12.808;2023-12-20T03:23:50;3.20;99.90
32839;DHT22;19182;41.820;12.808;2023-12-20T03:26:17;3.30;99.90
32839;DHT22;19182;41.820;12.808;2023-12-20T03:28:44;3.30;99.90
32839;DHT22;19182;41.820;12.808;2023-12-20T03:31:11;3.30;99.90
32839;DHT22;19182;41.820;12.808;2023-12-20T03:33:37;3.20;99.90
32839;DHT22;19182;41.820;12.808;2023-12-20T03:36:02;3.20;99.90
32839;DHT22;19182;41.820;12.808;2023-12-20T03:38:29;3.20;99.90
32839;DHT22;19182;41.820;12.808;2023-12-20T03:40:55;3.30;99.90
32839;DHT22;19182;41.820;12.808;2023-12-20T03:43:21;3.40;99.90
32839;DHT22;19182;41.820;12.808;2023-12-20T03:45:47;3.30;99.90
32839;DHT22;19182;41.820;12.808;2023-12-20T03:48:14;3.30;99.90
32839;DHT22;19182;41.820;12.808;2023-12-20T03:50:40;3.40;99.90
32839;DHT22;19182;41.820;12.808;2023-12-20T03:53:05;3.40;99.90
32839;DHT22;19182;41.820;12.808;2023-12-20T03:55:32;3.40;99.90
32839;DHT22;19182;41.820;12.808;2023-12-20T03:57:58;3.70;99.90
32839;DHT22;19182;41.820;12.808;2023-12-20T04:00:23;3.70;99.90
32839;DHT22;19182;41.820;12.808;2023-12-20T04:02:50;3.70;99.90
32839;DHT22;19182;41.820;12.808;2023-12-20T04:05:17;3.90;99.90
32839;DHT22;19182;41.820;12.808;2023-12-20T04:07:43;3.90;99.90
32839;DHT22;19182;41.820;12.808;2023-12-20T04:10:09;3.90;99.90
32839;DHT22;19182;41.820;12.808;2023-12-20T04:12:36;4.00;99.90
32839;DHT22;19182;41.820;12.808;2023-12-20T04:15:03;4.00;99.90
32839;DHT22;19182;41.820;12.808;2023-12-20T04:17:35;4.10;99.90
32839;DHT22;19182;41.820;12.808;2023-12-20T04:20:01;4.20;99.90
32839;DHT22;19182;41.820;12.808;2023-12-20T04:22:28;4.00;99.90
32839;DHT22;19182;41.820;12.808;2023-12-20T04:24:53;4.00;99.90
32839;DHT22;19182;41.820;12.808;2023-12-20T04:27:20;3.90;99.90
32839;DHT22;19182;41.820;12.808;2023-12-20T04:29:46;3.90;99.90
32839;DHT22;19182;41.820;12.808;2023-12-20T04:32:12;3.80;99.90
32839;DHT22;19182;41.820;12.808;2023-12-20T04:34:38;3.90;99.90
32839;DHT22;19182;41.820;12.808;2023-12-20T04:37:05;4.00;99.90
32839;DHT22;19182;41.820;12.808;2023-12-20T04:39:32;4.00;99.90
32839;DHT22;19182;41.820;12.808;2023-12-20T04:41:59;4.20;99.90
32839;DHT22;19182;41.820;12.808;2023-12-20T04:44:26;4.20;99.90
32839;DHT22;19182;41.820;12.808;2023-12-20T04:46:52;4.20;99.90
32839;DHT22;19182;41.820;12.808;2023-12-20T04:49:19;4.20;99.90
32839;DHT22;19182;41.820;12.808;2023-12-20T04:51:45;4.10;99.90
32839;DHT22;19182;41.820;12.808;2023-12-20T04:54:12;4.20;99.90
32839;DHT22;19182;41.820;12.808;2023-12-20T04:56:40;4.30;99.90
32839;DHT22;19182;41.820;12.808;2023-12-20T04:59:06;4.30;99.90
32839;DHT22;19182;41.820;12.808;2023-12-20T05:01:33;4.30;99.90
32839;DHT22;19182;41.820;12.808;2023-12-20T05:03:59;4.40;99.90
32839;DHT22;19182;41.820;12.808;2023-12-20T05:06:26;4.30;99.90
32839;DHT22;19182;41.820;12.808;2023-12-20T05:08:52;4.40;99.90
32839;DHT22;19182;41.820;12.808;2023-12-20T05:11:18;4.30;99.90
32839;DHT22;19182;41.820;12.808;2023-12-20T05:13:44;4.30;99.90
32839;DHT22;19182;41.820;12.808;2023-12-20T05:16:10;4.20;99.90
32839;DHT22;19182;41.820;12.808;2023-12-20T05:18:35;4.20;99.90
32839;DHT22;19182;41.820;12.808;2023-12-20T05:21:02;4.20;99.90
32839;DHT22;19182;41.820;12.808;2023-12-20T05:23:28;4.10;99.90
32839;DHT22;19182;41.820;12.808;2023-12-20T05:25:55;4.10;99.90
32839;DHT22;19182;41.820;12.808;2023-12-20T05:28:21;4.10;99.90
32839;DHT22;19182;41.820;12.808;2023-12-20T05:30:47;4.50;99.90
32839;DHT22;19182;41.820;12.808;2023-12-20T05:33:14;4.00;99.90
32839;DHT22;19182;41.820;12.808;2023-12-20T05:35:44;4.10;99.90
32839;DHT22;19182;41.820;12.808;2023-12-20T05:38:10;4.20;99.90
32839;DHT22;19182;41.820;12.808;2023-12-20T05:40:35;4.20;99.90
32839;DHT22;19182;41.820;12.808;2023-12-20T05:43:01;4.30;99.90
32839;DHT22;19182;41.820;12.808;2023-12-20T05:45:27;4.30;99.90
32839;DHT22;19182;41.820;12.808;2023-12-20T05:47:55;4.30;99.90
32839;DHT22;19182;41.820;12.808;2023-12-20T05:50:22;4.20;99.90
32839;DHT22;19182;41.820;12.808;2023-12-20T05:52:48;4.20;99.90
32839;DHT22;19182;41.820;12.808;2023-12-20T05:55:14;4.20;99.90
32839;DHT22;19182;41.820;12.808;2023-12-20T05:57:40;4.20;99.90
32839;DHT22;19182;41.820;12.808;2023-12-20T06:00:07;4.10;99.90
32839;DHT22;19182;41.820;12.808;2023-12-20T06:02:33;4.20;99.90
32839;DHT22;19182;41.820;12.808;2023-12-20T06:04:59;4.20;99.90
32839;DHT22;19182;41.820;12.808;2023-12-20T06:07:25;4.20;99.90
32839;DHT22;19182;41.820;12.808;2023-12-20T06:09:50;4.60;99.90
32839;DHT22;19182;41.820;12.808;2023-12-20T06:12:16;4.60;99.90
32839;DHT22;19182;41.820;12.808;2023-12-20T06:14:42;4.80;99.90
32839;DHT22;19182;41.820;12.808;2023-12-20T06:17:08;5.00;99.90
32839;DHT22;19182;41.820;12.808;2023-12-20T06:19:33;5.00;99.90
32839;DHT22;19182;41.820;12.808;2023-12-20T06:21:59;5.10;99.90
32839;DHT22;19182;41.820;12.808;2023-12-20T06:24:25;5.10;99.90
32839;DHT22;19182;41.820;12.808;2023-12-20T06:26:54;5.10;99.90
32839;DHT22;19182;41.820;12.808;2023-12-20T06:29:20;5.00;99.90
32839;DHT22;19182;41.820;12.808;2023-12-20T06:31:46;5.00;99.90
32839;DHT22;19182;41.820;12.808;2023-12-20T06:34:12;5.00;99.90
32839;DHT22;19182;41.820;12.808;2023-12-20T06:36:37;5.00;99.90
32839;DHT22;19182;41.820;12.808;2023-12-20T06:39:03;3.70;99.90
32839;DHT22;19182;41.820;12.808;2023-12-20T06:41:30;5.30;99.90
32839;DHT22;19182;41.820;12.808;2023-12-20T06:43:56;5.60;99.90
32839;DHT22;19182;41.820;12.808;2023-12-20T06:46:22;5.70;99.90
32839;DHT22;19182;41.820;12.808;2023-12-20T06:48:48;5.80;99.90
32839;DHT22;19182;41.820;12.808;2023-12-20T06:51:17;5.80;99.90
32839;DHT22;19182;41.820;12.808;2023-12-20T06:53:45;5.80;99.90
32839;DHT22;19182;41.820;12.808;2023-12-20T06:56:11;5.80;99.90
32839;DHT22;19182;41.820;12.808;2023-12-20T06:58:39;5.80;99.90
32839;DHT22;19182;41.820;12.808;2023-12-20T07:01:05;5.90;99.90
32839;DHT22;19182;41.820;12.808;2023-12-20T07:03:31;5.90;99.90
32839;DHT22;19182;41.820;12.808;2023-12-20T07:05:59;6.10;99.90
32839;DHT22;19182;41.820;12.808;2023-12-20T07:08:26;6.30;99.90
32839;DHT22;19182;41.820;12.808;2023-12-20T07:10:52;6.20;99.90
32839;DHT22;19182;41.820;12.808;2023-12-20T07:13:17;6.40;99.90
32839;DHT22;19182;41.820;12.808;2023-12-20T07:15:43;6.40;99.90
32839;DHT22;19182;41.820;12.808;2023-12-20T07:18:09;6.40;99.90
32839;DHT22;19182;41.820;12.808;2023-12-20T07:20:35;6.50;99.90
32839;DHT22;19182;41.820;12.808;2023-12-20T07:23:00;6.70;99.90
32839;DHT22;19182;41.820;12.808;2023-12-20T07:25:27;6.90;99.90
32839;DHT22;19182;41.820;12.808;2023-12-20T07:27:53;6.90;99.90
32839;DHT22;19182;41.820;12.808;2023-12-20T07:30:19;7.00;99.90
32839;DHT22;19182;41.820;12.808;2023-12-20T07:32:44;7.20;99.90
32839;DHT22;19182;41.820;12.808;2023-12-20T07:35:10;7.20;99.90
32839;DHT22;19182;41.820;12.808;2023-12-20T07:37:36;7.40;99.90
32839;DHT22;19182;41.820;12.808;2023-12-20T07:40:02;7.50;99.90
32839;DHT22;19182;41.820;12.808;2023-12-20T07:42:29;7.60;99.90
32839;DHT22;19182;41.820;12.808;2023-12-20T07:44:54;7.70;99.90
32839;DHT22;19182;41.820;12.808;2023-12-20T07:47:21;7.80;99.90
32839;DHT22;19182;41.820;12.808;2023-12-20T07:49:48;7.80;99.90
32839;DHT22;19182;41.820;12.808;2023-12-20T07:52:14;8.00;99.90
32839;DHT22;19182;41.820;12.808;2023-12-20T07:54:40;8.30;99.90
32839;DHT22;19182;41.820;12.808;2023-12-20T07:57:05;9.10;99.90
32839;DHT22;19182;41.820;12.808;2023-12-20T07:59:32;9.80;99.90
32839;DHT22;19182;41.820;12.808;2023-12-20T08:01:58;10.90;99.90
32839;DHT22;19182;41.820;12.808;2023-12-20T08:04:25;12.40;99.90
32839;DHT22;19182;41.820;12.808;2023-12-20T08:06:51;13.10;99.90
32839;DHT22;19182;41.820;12.808;2023-12-20T08:09:17;13.70;99.90
32839;DHT22;19182;41.820;12.808;2023-12-20T08:11:47;14.80;99.90
32839;DHT22;19182;41.820;12.808;2023-12-20T08:14:13;15.40;99.90
32839;DHT22;19182;41.820;12.808;2023-12-20T08:16:39;15.60;99.90
32839;DHT22;19182;41.820;12.808;2023-12-20T08:19:05;16.10;99.90
32839;DHT22;19182;41.820;12.808;2023-12-20T08:21:31;16.40;99.90
32839;DHT22;19182;41.820;12.808;2023-12-20T08:23:56;16.70;99.50
32839;DHT22;19182;41.820;12.808;2023-12-20T08:26:22;16.80;98.30
32839;DHT22;19182;41.820;12.808;2023-12-20T08:28:49;17.40;97.30
32839;DHT22;19182;41.820;12.808;2023-12-20T08:31:16;17.20;96.10
32839;DHT22;19182;41.820;12.808;2023-12-20T08:33:44;16.60;96.90
32839;DHT22;19182;41.820;12.808;2023-12-20T08:36:10;17.10;96.40
32839;DHT22;19182;41.820;12.808;2023-12-20T08:38:36;17.10;95.60
32839;DHT22;19182;41.820;12.808;2023-12-20T08:41:02;17.10;94.10
32839;DHT22;19182;41.820;12.808;2023-12-20T08:43:31;16.30;95.40
32839;DHT22;19182;41.820;12.808;2023-12-20T08:45:57;17.10;94.70
32839;DHT22;19182;41.820;12.808;2023-12-20T08:48:23;18.70;93.40
32839;DHT22;19182;41.820;12.808;2023-12-20T08:50:49;19.70;90.40
32839;DHT22;19182;41.820;12.808;2023-12-20T08:53:15;21.20;85.60
32839;DHT22;19182;41.820;12.808;2023-12-20T08:55:42;21.40;79.90
32839;DHT22;19182;41.820;12.808;2023-12-20T08:58:09;21.40;75.70
32839;DHT22;19182;41.820;12.808;2023-12-20T09:00:35;21.70;73.90
32839;DHT22;19182;41.820;12.808;2023-12-20T09:03:04;20.40;74.90
32839;DHT22;19182;41.820;12.808;2023-12-20T09:05:30;22.20;76.80
32839;DHT22;19182;41.820;12.808;2023-12-20T09:07:56;23.00;73.50
32839;DHT22;19182;41.820;12.808;2023-12-20T09:10:23;22.80;67.60
32839;DHT22;19182;41.820;12.808;2023-12-20T09:12:51;24.70;65.90
32839;DHT22;19182;41.820;12.808;2023-12-20T09:15:24;25.90;61.40
32839;DHT22;19182;41.820;12.808;2023-12-20T09:17:50;25.30;59.60
32839;DHT22;19182;41.820;12.808;2023-12-20T09:20:17;26.40;57.10
32839;DHT22;19182;41.820;12.808;2023-12-20T09:22:43;27.00;58.40
32839;DHT22;19182;41.820;12.808;2023-12-20T09:25:10;27.50;56.60
32839;DHT22;19182;41.820;12.808;2023-12-20T09:27:37;28.10;55.20
32839;DHT22;19182;41.820;12.808;2023-12-20T09:30:02;28.60;55.00
32839;DHT22;19182;41.820;12.808;2023-12-20T09:32:31;29.00;52.50
32839;DHT22;19182;41.820;12.808;2023-12-20T09:34:58;28.30;52.70
32839;DHT22;19182;41.820;12.808;2023-12-20T09:37:26;27.00;54.10
32839;DHT22;19182;41.820;12.808;2023-12-20T09:39:53;27.40;56.20
32839;DHT22;19182;41.820;12.808;2023-12-20T09:42:27;28.50;55.60
32839;DHT22;19182;41.820;12.808;2023-12-20T09:44:55;29.90;53.10
32839;DHT22;19182;41.820;12.808;2023-12-20T09:47:24;30.90;52.60
32839;DHT22;19182;41.820;12.808;2023-12-20T09:49:50;31.20;52.10
32839;DHT22;19182;41.820;12.808;2023-12-20T09:52:18;31.20;52.10
32839;DHT22;19182;41.820;12.808;2023-12-20T09:54:44;30.60;52.20
32839;DHT22;19182;41.820;12.808;2023-12-20T09:57:11;30.80;53.00
32839;DHT22;19182;41.820;12.808;2023-12-20T09:59:38;29.70;53.70
32839;DHT22;19182;41.820;12.808;2023-12-20T10:02:09;28.60;54.70
32839;DHT22;19182;41.820;12.808;2023-12-20T10:04:44;27.20;57.80
32839;DHT22;19182;41.820;12.808;2023-12-20T10:07:11;24.90;62.70
32839;DHT22;19182;41.820;12.808;2023-12-20T10:09:39;22.20;70.90
32839;DHT22;19182;41.820;12.808;2023-12-20T10:12:06;21.20;75.90
32839;DHT22;19182;41.820;12.808;2023-12-20T10:14:32;20.20;80.50
32839;DHT22;19182;41.820;12.808;2023-12-20T10:17:05;19.70;85.70
32839;DHT22;19182;41.820;12.808;2023-12-20T10:19:32;19.30;90.50
32839;DHT22;19182;41.820;12.808;2023-12-20T10:21:59;18.80;93.60
32839;DHT22;19182;41.820;12.808;2023-12-20T10:24:28;18.10;99.40
32839;DHT22;19182;41.820;12.808;2023-12-20T10:27:07;18.00;99.90
32839;DHT22;19182;41.820;12.808;2023-12-20T10:29:36;20.30;99.70
32839;DHT22;19182;41.820;12.808;2023-12-20T10:32:21;23.20;94.90
32839;DHT22;19182;41.820;12.808;2023-12-20T10:34:49;26.50;86.60
32839;DHT22;19182;41.820;12.808;2023-12-20T10:37:15;27.90;77.40
32839;DHT22;19182;41.820;12.808;2023-12-20T10:39:42;28.40;74.20
32839;DHT22;19182;41.820;12.808;2023-12-20T10:42:10;28.30;74.20
32839;DHT22;19182;41.820;12.808;2023-12-20T10:44:38;26.80;77.20
32839;DHT22;19182;41.820;12.808;2023-12-20T10:47:04;27.00;78.90
32839;DHT22;19182;41.820;12.808;2023-12-20T10:49:31;27.00;78.70
32839;DHT22;19182;41.820;12.808;2023-12-20T10:52:02;27.40;77.10
32839;DHT22;19182;41.820;12.808;2023-12-20T10:54:29;28.60;74.70
32839;DHT22;19182;41.820;12.808;2023-12-20T10:56:57;28.70;72.10
32839;DHT22;19182;41.820;12.808;2023-12-20T10:59:24;26.40;74.30
32839;DHT22;19182;41.820;12.808;2023-12-20T11:01:56;24.20;81.20
32839;DHT22;19182;41.820;12.808;2023-12-20T11:04:31;21.00;92.50
32839;DHT22;19182;41.820;12.808;2023-12-20T11:09:59;21.70;93.50
32839;DHT22;19182;41.820;12.808;2023-12-20T11:12:43;24.50;90.70
32839;DHT22;19182;41.820;12.808;2023-12-20T11:15:13;25.40;84.70
32839;DHT22;19182;41.820;12.808;2023-12-20T11:17:40;24.10;87.50
32839;DHT22;19182;41.820;12.808;2023-12-20T11:20:10;24.40;88.60
32839;DHT22;19182;41.820;12.808;2023-12-20T11:22:37;25.50;85.40
32839;DHT22;19182;41.820;12.808;2023-12-20T11:25:07;27.00;80.60
32839;DHT22;19182;41.820;12.808;2023-12-20T11:27:37;28.00;77.90
32839;DHT22;19182;41.820;12.808;2023-12-20T11:30:06;28.30;74.40
32839;DHT22;19182;41.820;12.808;2023-12-20T11:32:36;28.20;74.20
32839;DHT22;19182;41.820;12.808;2023-12-20T11:37:38;30.80;68.40
32839;DHT22;19182;41.820;12.808;2023-12-20T11:40:11;28.40;69.80
32839;DHT22;19182;41.820;12.808;2023-12-20T11:42:42;26.70;73.00
32839;DHT22;19182;41.820;12.808;2023-12-20T11:45:12;25.10;79.30
32839;DHT22;19182;41.820;12.808;2023-12-20T11:47:42;24.80;79.30
32839;DHT22;19182;41.820;12.808;2023-12-20T11:50:08;25.40;80.60
32839;DHT22;19182;41.820;12.808;2023-12-20T11:52:35;27.60;74.80
32839;DHT22;19182;41.820;12.808;2023-12-20T11:55:01;27.40;73.50
32839;DHT22;19182;41.820;12.808;2023-12-20T11:57:27;27.50;74.70
32839;DHT22;19182;41.820;12.808;2023-12-20T11:59:52;28.80;72.30
32839;DHT22;19182;41.820;12.808;2023-12-20T12:02:18;29.20;70.40
32839;DHT22;19182;41.820;12.808;2023-12-20T12:04:44;29.40;68.70
32839;DHT22;19182;41.820;12.808;2023-12-20T12:07:10;28.80;68.30
32839;DHT22;19182;41.820;12.808;2023-12-20T12:09:35;27.70;70.70
32839;DHT22;19182;41.820;12.808;2023-12-20T12:12:02;26.40;73.40
32839;DHT22;19182;41.820;12.808;2023-12-20T12:14:28;25.10;77.10
32839;DHT22;19182;41.820;12.808;2023-12-20T12:16:54;24.20;79.80
32839;DHT22;19182;41.820;12.808;2023-12-20T12:19:23;22.90;84.00
32839;DHT22;19182;41.820;12.808;2023-12-20T12:22:10;21.80;88.10
32839;DHT22;19182;41.820;12.808;2023-12-20T12:24:43;21.30;90.30
32839;DHT22;19182;41.820;12.808;2023-12-20T12:27:09;20.80;92.20
32839;DHT22;19182;41.820;12.808;2023-12-20T12:29:36;19.90;94.90
32839;DHT22;19182;41.820;12.808;2023-12-20T12:32:08;19.50;97.50
32839;DHT22;19182;41.820;12.808;2023-12-20T12:34:50;19.40;98.90
32839;DHT22;19182;41.820;12.808;2023-12-20T12:37:16;19.40;99.90
32839;DHT22;19182;41.820;12.808;2023-12-20T12:39:41;20.30;99.10
32839;DHT22;19182;41.820;12.808;2023-12-20T12:42:07;20.80;98.00
32839;DHT22;19182;41.820;12.808;2023-12-20T12:44:33;21.90;96.10
32839;DHT22;19182;41.820;12.808;2023-12-20T12:46:59;22.40;93.90
32839;DHT22;19182;41.820;12.808;2023-12-20T12:49:24;23.40;93.80
32839;DHT22;19182;41.820;12.808;2023-12-20T12:51:51;23.60;91.90
32839;DHT22;19182;41.820;12.808;2023-12-20T12:54:17;22.30;89.40
32839;DHT22;19182;41.820;12.808;2023-12-20T12:56:44;23.80;89.80
32839;DHT22;19182;41.820;12.808;2023-12-20T12:59:10;22.80;91.30
32839;DHT22;19182;41.820;12.808;2023-12-20T13:01:36;21.50;93.80
32839;DHT22;19182;41.820;12.808;2023-12-20T13:04:02;20.90;94.70
32839;DHT22;19182;41.820;12.808;2023-12-20T13:06:29;20.20;96.00
32839;DHT22;19182;41.820;12.808;2023-12-20T13:08:55;19.60;98.90
32839;DHT22;19182;41.820;12.808;2023-12-20T13:11:21;19.20;99.90
32839;DHT22;19182;41.820;12.808;2023-12-20T13:13:46;18.70;99.90
32839;DHT22;19182;41.820;12.808;2023-12-20T13:16:12;18.30;99.90
32839;DHT22;19182;41.820;12.808;2023-12-20T13:18:38;17.90;99.90
32839;DHT22;19182;41.820;12.808;2023-12-20T13:21:08;17.40;99.90
32839;DHT22;19182;41.820;12.808;2023-12-20T13:23:33;16.90;99.90
32839;DHT22;19182;41.820;12.808;2023-12-20T13:25:59;16.60;99.90
32839;DHT22;19182;41.820;12.808;2023-12-20T13:28:25;16.30;99.90
32839;DHT22;19182;41.820;12.808;2023-12-20T13:30:50;15.80;99.90
32839;DHT22;19182;41.820;12.808;2023-12-20T13:33:16;15.40;99.90
32839;DHT22;19182;41.820;12.808;2023-12-20T13:35:42;15.20;99.90
32839;DHT22;19182;41.820;12.808;2023-12-20T13:38:07;15.00;99.90
32839;DHT22;19182;41.820;12.808;2023-12-20T13:40:33;15.10;99.90
32839;DHT22;19182;41.820;12.808;2023-12-20T13:42:59;15.10;99.90
32839;DHT22;19182;41.820;12.808;2023-12-20T13:45:24;15.00;99.90
32839;DHT22;19182;41.820;12.808;2023-12-20T13:47:51;14.90;99.90
32839;DHT22;19182;41.820;12.808;2023-12-20T13:50:17;14.80;99.90
32839;DHT22;19182;41.820;12.808;2023-12-20T13:52:44;14.60;99.90
32839;DHT22;19182;41.820;12.808;2023-12-20T13:55:09;14.40;99.90
32839;DHT22;19182;41.820;12.808;2023-12-20T13:57:35;14.30;99.90
32839;DHT22;19182;41.820;12.808;2023-12-20T14:00:04;14.10;99.90
32839;DHT22;19182;41.820;12.808;2023-12-20T14:02:30;14.10;99.90
32839;DHT22;19182;41.820;12.808;2023-12-20T14:04:57;14.10;99.90
32839;DHT22;19182;41.820;12.808;2023-12-20T14:07:22;14.00;99.90
32839;DHT22;19182;41.820;12.808;2023-12-20T14:09:48;13.80;99.90
32839;DHT22;19182;41.820;12.808;2023-12-20T14:12:14;13.70;99.90
32839;DHT22;19182;41.820;12.808;2023-12-20T14:14:40;13.70;99.90
32839;DHT22;19182;41.820;12.808;2023-12-20T14:17:06;13.80;99.90
32839;DHT22;19182;41.820;12.808;2023-12-20T14:19:34;13.80;99.90
32839;DHT22;19182;41.820;12.808;2023-12-20T14:22:01;13.80;99.90
32839;DHT22;19182;41.820;12.808;2023-12-20T14:24:28;13.90;99.90
32839;DHT22;19182;41.820;12.808;2023-12-20T14:26:53;13.80;99.90
32839;DHT22;19182;41.820;12.808;2023-12-20T14:29:19;13.70;99.90
32839;DHT22;19182;41.820;12.808;2023-12-20T14:31:45;13.80;99.90
32839;DHT22;19182;41.820;12.808;2023-12-20T14:34:10;13.70;99.90
32839;DHT22;19182;41.820;12.808;2023-12-20T14:36:36;13.90;99.90
32839;DHT22;19182;41.820;12.808;2023-12-20T14:39:02;13.80;99.90
32839;DHT22;19182;41.820;12.808;2023-12-20T14:41:30;13.80;99.90
32839;DHT22;19182;41.820;12.808;2023-12-20T14:43:55;13.80;99.90
32839;DHT22;19182;41.820;12.808;2023-12-20T14:53:40;15.60;99.90
32839;DHT22;19182;41.820;12.808;2023-12-20T14:56:07;13.10;99.90
32839;DHT22;19182;41.820;12.808;2023-12-20T14:58:33;13.10;99.90
32839;DHT22;19182;41.820;12.808;2023-12-20T15:01:00;12.80;99.90
32839;DHT22;19182;41.820;12.808;2023-12-20T15:03:26;12.80;99.90
32839;DHT22;19182;41.820;12.808;2023-12-20T15:05:52;12.60;99.90
32839;DHT22;19182;41.820;12.808;2023-12-20T15:08:17;12.50;99.90
32839;DHT22;19182;41.820;12.808;2023-12-20T15:18:46;11.90;99.90
32839;DHT22;19182;41.820;12.808;2023-12-20T15:21:12;11.70;99.90
32839;DHT22;19182;41.820;12.808;2023-12-20T15:23:38;11.50;99.90
32839;DHT22;19182;41.820;12.808;2023-12-20T15:26:03;11.40;99.90
32839;DHT22;19182;41.820;12.808;2023-12-20T15:28:31;11.20;99.90
32839;DHT22;19182;41.820;12.808;2023-12-20T15:30:56;11.20;99.90
32839;DHT22;19182;41.820;12.808;2023-12-20T15:33:22;10.90;99.90
32839;DHT22;19182;41.820;12.808;2023-12-20T15:35:48;10.70;99.90
32839;DHT22;19182;41.820;12.808;2023-12-20T15:40:40;10.30;99.90
32839;DHT22;19182;41.820;12.808;2023-12-20T15:43:05;10.20;99.90